sensor_id;sensor_type;location;lat;lon;timestamp;temperature;humidity
52675;DHT22;38569;52.722;6.440;2022-12-18T00:00:59;-2.80;99.90
52675;DHT22;38569;52.722;6.440;2022-12-18T00:03:25;-2.80;99.90
52675;DHT22;38569;52.722;6.440;2022-12-18T00:05:52;-2.80;99.90
52675;DHT22;38569;52.722;6.440;2022-12-18T00:08:18;-2.80;99.90
52675;DHT22;38569;52.722;6.440;2022-12-18T00:10:44;-2.90;99.90
52675;DHT22;38569;52.722;6.440;2022-12-18T00:13:10;-2.90;99.90
52675;DHT22;38569;52.722;6.440;2022-12-18T00:15:38;-2.90;99.90
52675;DHT22;38569;52.722;6.440;2022-12-18T00:18:04;-2.90;99.90
52675;DHT22;38569;52.722;6.440;2022-12-18T00:20:30;-2.90;99.90
52675;DHT22;38569;52.722;6.440;2022-12-18T00:22:56;-2.90;99.90
52675;DHT22;38569;52.722;6.440;2022-12-18T00:25:21;-2.90;99.90
52675;DHT22;38569;52.722;6.440;2022-12-18T00:27:47;-2.90;99.90
52675;DHT22;38569;52.722;6.440;2022-12-18T00:30:13;-2.80;99.90
52675;DHT22;38569;52.722;6.440;2022-12-18T00:32:39;-2.80;99.90
52675;DHT22;38569;52.722;6.440;2022-12-18T00:35:06;-2.80;99.90
52675;DHT22;38569;52.722;6.440;2022-12-18T00:37:33;-2.80;99.90
52675;DHT22;38569;52.722;6.440;2022-12-18T00:39:59;-2.90;99.90
52675;DHT22;38569;52.722;6.440;2022-12-18T00:42:25;-2.90;99.90
52675;DHT22;38569;52.722;6.440;2022-12-18T00:45:09;-3.00;99.90
52675;DHT22;38569;52.722;6.440;2022-12-18T00:47:35;-3.00;99.90
52675;DHT22;38569;52.722;6.440;2022-12-18T00:50:01;-3.00;99.90
52675;DHT22;38569;52.722;6.440;2022-12-18T00:52:26;-3.00;99.90
52675;DHT22;38569;52.722;6.440;2022-12-18T00:54:52;-3.10;99.90
52675;DHT22;38569;52.722;6.440;2022-12-18T00:57:18;-3.10;99.90
52675;DHT22;38569;52.722;6.440;2022-12-18T00:59:43;-3.20;99.90
52675;DHT22;38569;52.722;6.440;2022-12-18T01:02:09;-3.20;99.90
52675;DHT22;38569;52.722;6.440;2022-12-18T01:04:35;-3.30;99.90
52675;DHT22;38569;52.722;6.440;2022-12-18T01:07:00;-3.30;99.90
52675;DHT22;38569;52.722;6.440;2022-12-18T01:09:26;-3.30;99.90
52675;DHT22;38569;52.722;6.440;2022-12-18T01:11:52;-3.40;99.90
52675;DHT22;38569;52.722;6.440;2022-12-18T01:14:17;-3.40;99.90
52675;DHT22;38569;52.722;6.440;2022-12-18T01:16:43;-3.40;99.90
52675;DHT22;38569;52.722;6.440;2022-12-18T01:19:09;-3.50;99.90
52675;DHT22;38569;52.722;6.440;2022-12-18T01:21:35;-3.50;99.90
52675;DHT22;38569;52.722;6.440;2022-12-18T01:24:00;-3.50;99.90
52675;DHT22;38569;52.722;6.440;2022-12-18T01:26:26;-3.60;99.90
52675;DHT22;38569;52.722;6.440;2022-12-18T01:28:55;-3.60;99.90
52675;DHT22;38569;52.722;6.440;2022-12-18T01:31:25;-3.70;99.90
52675;DHT22;38569;52.722;6.440;2022-12-18T01:33:52;-3.70;99.90
52675;DHT22;38569;52.722;6.440;2022-12-18T01:36:21;-3.70;99.90
52675;DHT22;38569;52.722;6.440;2022-12-18T01:38:48;-3.70;99.90
52675;DHT22;38569;52.722;6.440;2022-12-18T01:41:15;-3.80;99.90
52675;DHT22;38569;52.722;6.440;2022-12-18T01:43:48;-3.80;99.90
52675;DHT22;38569;52.722;6.440;2022-12-18T01:46:14;-3.80;99.90
52675;DHT22;38569;52.722;6.440;2022-12-18T01:48:41;-3.90;99.90
52675;DHT22;38569;52.722;6.440;2022-12-18T01:51:08;-3.90;99.90
52675;DHT22;38569;52.722;6.440;2022-12-18T01:53:36;-3.90;99.90
52675;DHT22;38569;52.722;6.440;2022-12-18T01:56:02;-4.00;99.90
52675;DHT22;38569;52.722;6.440;2022-12-18T01:58:54;-4.00;99.90
52675;DHT22;38569;52.722;6.440;2022-12-18T02:01:22;-4.10;99.90
52675;DHT22;38569;52.722;6.440;2022-12-18T02:03:49;-4.10;99.90
52675;DHT22;38569;52.722;6.440;2022-12-18T02:11:40;-4.20;99.90
52675;DHT22;38569;52.722;6.440;2022-12-18T02:14:16;-4.20;99.90
52675;DHT22;38569;52.722;6.440;2022-12-18T02:17:06;-4.20;99.90
52675;DHT22;38569;52.722;6.440;2022-12-18T02:19:43;-4.30;99.90
52675;DHT22;38569;52.722;6.440;2022-12-18T02:27:52;-4.30;99.90
52675;DHT22;38569;52.722;6.440;2022-12-18T02:30:18;-4.40;99.90
52675;DHT22;38569;52.722;6.440;2022-12-18T02:32:50;-4.40;99.90
52675;DHT22;38569;52.722;6.440;2022-12-18T02:35:22;-4.40;99.90
52675;DHT22;38569;52.722;6.440;2022-12-18T02:37:49;-4.40;99.90
52675;DHT22;38569;52.722;6.440;2022-12-18T02:40:17;-4.50;99.90
52675;DHT22;38569;52.722;6.440;2022-12-18T02:42:43;-4.50;99.90
52675;DHT22;38569;52.722;6.440;2022-12-18T02:45:09;-4.50;99.90
52675;DHT22;38569;52.722;6.440;2022-12-18T02:47:42;-4.50;99.90
52675;DHT22;38569;52.722;6.440;2022-12-18T02:50:32;-4.50;99.90
52675;DHT22;38569;52.722;6.440;2022-12-18T02:53:27;-4.60;99.90
52675;DHT22;38569;52.722;6.440;2022-12-18T02:56:38;-4.60;99.90
52675;DHT22;38569;52.722;6.440;2022-12-18T02:59:09;-4.70;99.90
52675;DHT22;38569;52.722;6.440;2022-12-18T03:07:02;-4.70;99.90
52675;DHT22;38569;52.722;6.440;2022-12-18T03:09:40;-4.70;99.90
52675;DHT22;38569;52.722;6.440;2022-12-18T03:15:02;-4.80;99.90
52675;DHT22;38569;52.722;6.440;2022-12-18T03:17:32;-4.80;99.90
52675;DHT22;38569;52.722;6.440;2022-12-18T03:20:05;-4.80;99.90
52675;DHT22;38569;52.722;6.440;2022-12-18T03:22:33;-4.80;99.90
52675;DHT22;38569;52.722;6.440;2022-12-18T03:25:03;-4.90;99.90
52675;DHT22;38569;52.722;6.440;2022-12-18T03:27:30;-4.90;99.90
52675;DHT22;38569;52.722;6.440;2022-12-18T03:30:03;-4.90;99.90
52675;DHT22;38569;52.722;6.440;2022-12-18T03:35:08;-4.90;99.90
52675;DHT22;38569;52.722;6.440;2022-12-18T03:37:36;-5.00;99.90
52675;DHT22;38569;52.722;6.440;2022-12-18T03:40:03;-4.90;99.90
52675;DHT22;38569;52.722;6.440;2022-12-18T03:42:56;-5.00;99.90
52675;DHT22;38569;52.722;6.440;2022-12-18T03:45:34;-5.00;99.90
52675;DHT22;38569;52.722;6.440;2022-12-18T03:48:22;-5.00;99.90
52675;DHT22;38569;52.722;6.440;2022-12-18T03:51:02;-5.00;99.90
52675;DHT22;38569;52.722;6.440;2022-12-18T03:53:43;-5.00;99.90
52675;DHT22;38569;52.722;6.440;2022-12-18T03:56:13;-5.00;99.90
52675;DHT22;38569;52.722;6.440;2022-12-18T03:58:41;-5.00;99.90
52675;DHT22;38569;52.722;6.440;2022-12-18T04:01:08;-5.00;99.90
52675;DHT22;38569;52.722;6.440;2022-12-18T04:03:35;-5.00;99.90
52675;DHT22;38569;52.722;6.440;2022-12-18T04:06:02;-5.10;99.90
52675;DHT22;38569;52.722;6.440;2022-12-18T04:08:29;-5.10;99.90
52675;DHT22;38569;52.722;6.440;2022-12-18T04:10:54;-5.10;99.90
52675;DHT22;38569;52.722;6.440;2022-12-18T04:13:27;-5.00;99.90
52675;DHT22;38569;52.722;6.440;2022-12-18T04:15:54;-5.00;99.90
52675;DHT22;38569;52.722;6.440;2022-12-18T04:18:19;-5.00;99.90
52675;DHT22;38569;52.722;6.440;2022-12-18T04:20:45;-4.90;99.90
52675;DHT22;38569;52.722;6.440;2022-12-18T04:23:11;-4.90;99.90
52675;DHT22;38569;52.722;6.440;2022-12-18T04:25:37;-4.90;99.90
52675;DHT22;38569;52.722;6.440;2022-12-18T04:28:02;-4.90;99.90
52675;DHT22;38569;52.722;6.440;2022-12-18T04:30:28;-5.00;99.90
52675;DHT22;38569;52.722;6.440;2022-12-18T04:32:54;-5.00;99.90
52675;DHT22;38569;52.722;6.440;2022-12-18T04:35:19;-5.00;99.90
52675;DHT22;38569;52.722;6.440;2022-12-18T04:37:45;-5.10;99.90
52675;DHT22;38569;52.722;6.440;2022-12-18T04:40:11;-5.10;99.90
52675;DHT22;38569;52.722;6.440;2022-12-18T04:42:39;-5.10;99.90
52675;DHT22;38569;52.722;6.440;2022-12-18T04:45:05;-5.10;99.90
52675;DHT22;38569;52.722;6.440;2022-12-18T04:47:31;-5.20;99.90
52675;DHT22;38569;52.722;6.440;2022-12-18T04:49:57;-5.10;99.90
52675;DHT22;38569;52.722;6.440;2022-12-18T04:52:22;-5.10;99.90
52675;DHT22;38569;52.722;6.440;2022-12-18T04:54:48;-5.10;99.90
52675;DHT22;38569;52.722;6.440;2022-12-18T04:57:14;-5.10;99.90
52675;DHT22;38569;52.722;6.440;2022-12-18T04:59:39;-5.10;99.90
52675;DHT22;38569;52.722;6.440;2022-12-18T05:02:05;-5.10;99.90
52675;DHT22;38569;52.722;6.440;2022-12-18T05:04:31;-5.20;99.90
52675;DHT22;38569;52.722;6.440;2022-12-18T05:06:58;-5.20;99.90
52675;DHT22;38569;52.722;6.440;2022-12-18T05:09:23;-5.20;99.90
52675;DHT22;38569;52.722;6.440;2022-12-18T05:11:49;-5.20;99.90
52675;DHT22;38569;52.722;6.440;2022-12-18T05:14:15;-5.20;99.90
52675;DHT22;38569;52.722;6.440;2022-12-18T05:16:40;-5.20;99.90
52675;DHT22;38569;52.722;6.440;2022-12-18T05:19:06;-5.20;99.90
52675;DHT22;38569;52.722;6.440;2022-12-18T05:21:32;-5.20;99.90
52675;DHT22;38569;52.722;6.440;2022-12-18T05:23:57;-5.30;99.90
52675;DHT22;38569;52.722;6.440;2022-12-18T05:26:23;-5.30;99.90
52675;DHT22;38569;52.722;6.440;2022-12-18T05:28:49;-5.30;99.90
52675;DHT22;38569;52.722;6.440;2022-12-18T05:31:14;-5.30;99.90
52675;DHT22;38569;52.722;6.440;2022-12-18T05:33:40;-5.40;99.90
52675;DHT22;38569;52.722;6.440;2022-12-18T05:36:08;-5.40;99.90
52675;DHT22;38569;52.722;6.440;2022-12-18T05:38:36;-5.50;99.90
52675;DHT22;38569;52.722;6.440;2022-12-18T05:41:03;-5.50;99.90
52675;DHT22;38569;52.722;6.440;2022-12-18T05:43:29;-5.50;99.90
52675;DHT22;38569;52.722;6.440;2022-12-18T05:45:55;-5.50;99.90
52675;DHT22;38569;52.722;6.440;2022-12-18T05:48:22;-5.50;99.90
52675;DHT22;38569;52.722;6.440;2022-12-18T05:50:50;-5.50;99.90
52675;DHT22;38569;52.722;6.440;2022-12-18T05:53:18;-5.50;99.90
52675;DHT22;38569;52.722;6.440;2022-12-18T05:55:45;-5.50;99.90
52675;DHT22;38569;52.722;6.440;2022-12-18T05:58:12;-5.50;99.90
52675;DHT22;38569;52.722;6.440;2022-12-18T06:00:41;-5.50;99.90
52675;DHT22;38569;52.722;6.440;2022-12-18T06:03:08;-5.50;99.90
52675;DHT22;38569;52.722;6.440;2022-12-18T06:05:39;-5.50;99.90
52675;DHT22;38569;52.722;6.440;2022-12-18T06:08:05;-5.50;99.90
52675;DHT22;38569;52.722;6.440;2022-12-18T06:10:32;-5.60;99.90
52675;DHT22;38569;52.722;6.440;2022-12-18T06:12:57;-5.60;99.90
52675;DHT22;38569;52.722;6.440;2022-12-18T06:15:23;-5.60;99.90
52675;DHT22;38569;52.722;6.440;2022-12-18T06:17:50;-5.70;99.90
52675;DHT22;38569;52.722;6.440;2022-12-18T06:20:15;-5.70;99.90
52675;DHT22;38569;52.722;6.440;2022-12-18T06:22:41;-5.80;99.90
52675;DHT22;38569;52.722;6.440;2022-12-18T06:25:07;-5.80;99.90
52675;DHT22;38569;52.722;6.440;2022-12-18T06:27:33;-5.70;99.90
52675;DHT22;38569;52.722;6.440;2022-12-18T06:29:59;-5.70;99.90
52675;DHT22;38569;52.722;6.440;2022-12-18T06:32:26;-5.70;99.90
52675;DHT22;38569;52.722;6.440;2022-12-18T06:34:51;-5.80;99.90
52675;DHT22;38569;52.722;6.440;2022-12-18T06:37:18;-5.80;99.90
52675;DHT22;38569;52.722;6.440;2022-12-18T06:39:44;-5.80;99.90
52675;DHT22;38569;52.722;6.440;2022-12-18T06:42:09;-5.80;99.90
52675;DHT22;38569;52.722;6.440;2022-12-18T06:44:35;-5.90;99.90
52675;DHT22;38569;52.722;6.440;2022-12-18T06:47:01;-5.80;99.90
52675;DHT22;38569;52.722;6.440;2022-12-18T06:49:26;-5.80;99.90
52675;DHT22;38569;52.722;6.440;2022-12-18T06:51:52;-5.80;99.90
52675;DHT22;38569;52.722;6.440;2022-12-18T06:54:18;-5.80;99.90
52675;DHT22;38569;52.722;6.440;2022-12-18T06:56:45;-5.90;99.90
52675;DHT22;38569;52.722;6.440;2022-12-18T06:59:12;-6.00;99.90
52675;DHT22;38569;52.722;6.440;2022-12-18T07:01:38;-6.10;99.90
52675;DHT22;38569;52.722;6.440;2022-12-18T07:04:04;-6.10;99.90
52675;DHT22;38569;52.722;6.440;2022-12-18T07:06:30;-6.10;99.90
52675;DHT22;38569;52.722;6.440;2022-12-18T07:08:56;-6.10;99.90
52675;DHT22;38569;52.722;6.440;2022-12-18T07:11:22;-6.10;99.90
52675;DHT22;38569;52.722;6.440;2022-12-18T07:13:48;-6.10;99.90
52675;DHT22;38569;52.722;6.440;2022-12-18T07:16:16;-6.20;99.90
52675;DHT22;38569;52.722;6.440;2022-12-18T07:18:43;-6.10;99.90
52675;DHT22;38569;52.722;6.440;2022-12-18T07:21:12;-6.10;99.90
52675;DHT22;38569;52.722;6.440;2022-12-18T07:23:37;-6.00;99.90
52675;DHT22;38569;52.722;6.440;2022-12-18T07:26:05;-6.00;99.90
52675;DHT22;38569;52.722;6.440;2022-12-18T07:28:32;-5.90;99.90
52675;DHT22;38569;52.722;6.440;2022-12-18T07:31:02;-5.80;99.90
52675;DHT22;38569;52.722;6.440;2022-12-18T07:33:28;-5.70;99.90
52675;DHT22;38569;52.722;6.440;2022-12-18T07:35:54;-5.70;99.90
52675;DHT22;38569;52.722;6.440;2022-12-18T07:38:21;-5.60;99.90
52675;DHT22;38569;52.722;6.440;2022-12-18T07:40:47;-5.60;99.90
52675;DHT22;38569;52.722;6.440;2022-12-18T07:43:13;-5.60;99.90
52675;DHT22;38569;52.722;6.440;2022-12-18T07:45:38;-5.60;99.90
52675;DHT22;38569;52.722;6.440;2022-12-18T07:48:04;-5.60;99.90
52675;DHT22;38569;52.722;6.440;2022-12-18T07:50:30;-5.60;99.90
52675;DHT22;38569;52.722;6.440;2022-12-18T07:52:56;-5.50;99.90
52675;DHT22;38569;52.722;6.440;2022-12-18T07:55:22;-5.50;99.90
52675;DHT22;38569;52.722;6.440;2022-12-18T07:57:47;-5.40;99.90
52675;DHT22;38569;52.722;6.440;2022-12-18T08:00:14;-5.40;99.90
52675;DHT22;38569;52.722;6.440;2022-12-18T08:02:39;-5.30;99.90
52675;DHT22;38569;52.722;6.440;2022-12-18T08:05:05;-5.30;99.90
52675;DHT22;38569;52.722;6.440;2022-12-18T08:07:31;-5.30;99.90
52675;DHT22;38569;52.722;6.440;2022-12-18T08:09:57;-5.20;99.90
52675;DHT22;38569;52.722;6.440;2022-12-18T08:12:22;-5.20;99.90
52675;DHT22;38569;52.722;6.440;2022-12-18T08:14:48;-5.20;99.90
52675;DHT22;38569;52.722;6.440;2022-12-18T08:17:14;-5.10;99.90
52675;DHT22;38569;52.722;6.440;2022-12-18T08:19:39;-5.00;99.90
52675;DHT22;38569;52.722;6.440;2022-12-18T08:22:12;-5.00;99.90
52675;DHT22;38569;52.722;6.440;2022-12-18T08:24:41;-4.90;99.90
52675;DHT22;38569;52.722;6.440;2022-12-18T08:27:10;-4.90;99.90
52675;DHT22;38569;52.722;6.440;2022-12-18T08:29:41;-4.80;99.90
52675;DHT22;38569;52.722;6.440;2022-12-18T08:32:07;-4.80;99.90
52675;DHT22;38569;52.722;6.440;2022-12-18T08:34:36;-4.70;99.90
52675;DHT22;38569;52.722;6.440;2022-12-18T08:37:01;-4.70;99.90
52675;DHT22;38569;52.722;6.440;2022-12-18T08:39:27;-4.60;99.90
52675;DHT22;38569;52.722;6.440;2022-12-18T08:41:53;-4.60;99.90
52675;DHT22;38569;52.722;6.440;2022-12-18T08:44:37;-4.50;99.90
52675;DHT22;38569;52.722;6.440;2022-12-18T08:47:03;-4.50;99.90
52675;DHT22;38569;52.722;6.440;2022-12-18T08:49:29;-4.40;99.90
52675;DHT22;38569;52.722;6.440;2022-12-18T08:51:55;-4.30;99.90
52675;DHT22;38569;52.722;6.440;2022-12-18T08:54:23;-4.20;99.90
52675;DHT22;38569;52.722;6.440;2022-12-18T08:56:49;-4.10;99.90
52675;DHT22;38569;52.722;6.440;2022-12-18T08:59:18;-4.10;99.90
52675;DHT22;38569;52.722;6.440;2022-12-18T09:01:44;-4.00;99.90
52675;DHT22;38569;52.722;6.440;2022-12-18T09:04:10;-3.90;99.90
52675;DHT22;38569;52.722;6.440;2022-12-18T09:06:36;-3.90;99.90
52675;DHT22;38569;52.722;6.440;2022-12-18T09:09:07;-3.70;99.90
52675;DHT22;38569;52.722;6.440;2022-12-18T09:11:33;-3.60;99.90
52675;DHT22;38569;52.722;6.440;2022-12-18T09:14:00;-3.60;99.90
52675;DHT22;38569;52.722;6.440;2022-12-18T09:16:27;-3.50;99.90
52675;DHT22;38569;52.722;6.440;2022-12-18T09:18:55;-3.50;99.90
52675;DHT22;38569;52.722;6.440;2022-12-18T09:21:27;-3.40;99.90
52675;DHT22;38569;52.722;6.440;2022-12-18T09:23:56;-3.20;99.90
52675;DHT22;38569;52.722;6.440;2022-12-18T09:26:29;-3.10;99.90
52675;DHT22;38569;52.722;6.440;2022-12-18T09:28:55;-2.90;99.90
52675;DHT22;38569;52.722;6.440;2022-12-18T09:31:29;-2.60;99.90
52675;DHT22;38569;52.722;6.440;2022-12-18T09:33:55;-2.10;99.90
52675;DHT22;38569;52.722;6.440;2022-12-18T09:36:22;-1.50;99.90
52675;DHT22;38569;52.722;6.440;2022-12-18T09:38:47;-1.10;99.90
52675;DHT22;38569;52.722;6.440;2022-12-18T09:44:01;-0.70;99.90
52675;DHT22;38569;52.722;6.440;2022-12-18T09:46:32;-0.70;99.90
52675;DHT22;38569;52.722;6.440;2022-12-18T09:49:02;-0.70;99.90
52675;DHT22;38569;52.722;6.440;2022-12-18T09:51:33;-0.70;99.90
52675;DHT22;38569;52.722;6.440;2022-12-18T09:54:12;-0.50;99.90
52675;DHT22;38569;52.722;6.440;2022-12-18T09:56:42;-0.20;99.90
52675;DHT22;38569;52.722;6.440;2022-12-18T09:59:32;0.00;99.90
52675;DHT22;38569;52.722;6.440;2022-12-18T10:02:02;0.20;99.90
52675;DHT22;38569;52.722;6.440;2022-12-18T10:04:39;0.50;99.90
52675;DHT22;38569;52.722;6.440;2022-12-18T10:07:21;0.80;99.90
52675;DHT22;38569;52.722;6.440;2022-12-18T10:09:55;0.70;99.90
52675;DHT22;38569;52.722;6.440;2022-12-18T10:15:36;0.10;99.90
52675;DHT22;38569;52.722;6.440;2022-12-18T10:20:52;-0.60;99.90
52675;DHT22;38569;52.722;6.440;2022-12-18T10:26:17;-1.10;99.90
52675;DHT22;38569;52.722;6.440;2022-12-18T10:28:49;-1.20;99.90
52675;DHT22;38569;52.722;6.440;2022-12-18T10:31:18;-1.30;99.90
52675;DHT22;38569;52.722;6.440;2022-12-18T10:33:46;-1.30;99.90
52675;DHT22;38569;52.722;6.440;2022-12-18T10:36:11;-1.40;99.90
52675;DHT22;38569;52.722;6.440;2022-12-18T10:38:37;-1.40;99.90
52675;DHT22;38569;52.722;6.440;2022-12-18T10:43:46;-1.40;99.90
52675;DHT22;38569;52.722;6.440;2022-12-18T10:46:15;-1.40;99.90
52675;DHT22;38569;52.722;6.440;2022-12-18T10:51:34;-1.30;99.90
52675;DHT22;38569;52.722;6.440;2022-12-18T10:56:30;-1.30;99.90
52675;DHT22;38569;52.722;6.440;2022-12-18T10:59:03;-1.20;99.90
52675;DHT22;38569;52.722;6.440;2022-12-18T11:01:57;-1.20;99.90
52675;DHT22;38569;52.722;6.440;2022-12-18T11:04:32;-1.10;99.90
52675;DHT22;38569;52.722;6.440;2022-12-18T11:09:32;-1.00;99.90
52675;DHT22;38569;52.722;6.440;2022-12-18T11:12:02;-1.10;99.90
52675;DHT22;38569;52.722;6.440;2022-12-18T11:14:34;-1.10;99.90
52675;DHT22;38569;52.722;6.440;2022-12-18T11:17:11;-1.00;99.90
52675;DHT22;38569;52.722;6.440;2022-12-18T11:19:43;-1.00;99.90
52675;DHT22;38569;52.722;6.440;2022-12-18T11:27:30;-0.80;99.90
52675;DHT22;38569;52.722;6.440;2022-12-18T11:32:55;-0.80;99.90
52675;DHT22;38569;52.722;6.440;2022-12-18T11:38:26;-1.00;99.90
52675;DHT22;38569;52.722;6.440;2022-12-18T11:40:59;-0.90;99.90
52675;DHT22;38569;52.722;6.440;2022-12-18T11:43:55;-0.90;99.90
52675;DHT22;38569;52.722;6.440;2022-12-18T11:49:12;-0.90;99.90
52675;DHT22;38569;52.722;6.440;2022-12-18T11:51:47;-0.90;99.90
52675;DHT22;38569;52.722;6.440;2022-12-18T11:54:15;-0.80;99.90
52675;DHT22;38569;52.722;6.440;2022-12-18T11:56:51;-0.70;99.90
52675;DHT22;38569;52.722;6.440;2022-12-18T11:59:47;-0.70;99.90
52675;DHT22;38569;52.722;6.440;2022-12-18T12:08:14;-0.50;99.90
52675;DHT22;38569;52.722;6.440;2022-12-18T12:27:29;-0.40;99.90
52675;DHT22;38569;52.722;6.440;2022-12-18T12:30:16;-0.40;99.90
52675;DHT22;38569;52.722;6.440;2022-12-18T12:38:13;-0.20;99.90
52675;DHT22;38569;52.722;6.440;2022-12-18T12:40:47;-0.20;99.90
52675;DHT22;38569;52.722;6.440;2022-12-18T12:43:25;-0.10;99.90
52675;DHT22;38569;52.722;6.440;2022-12-18T12:46:10;-0.10;99.90
52675;DHT22;38569;52.722;6.440;2022-12-18T12:48:57;0.00;99.90
52675;DHT22;38569;52.722;6.440;2022-12-18T12:51:30;0.10;99.90
52675;DHT22;38569;52.722;6.440;2022-12-18T12:54:00;0.00;99.90
52675;DHT22;38569;52.722;6.440;2022-12-18T12:57:21;0.00;99.90
52675;DHT22;38569;52.722;6.440;2022-12-18T12:59:46;0.00;99.90
52675;DHT22;38569;52.722;6.440;2022-12-18T13:05:19;0.00;99.90
52675;DHT22;38569;52.722;6.440;2022-12-18T13:07:56;0.10;99.90
52675;DHT22;38569;52.722;6.440;2022-12-18T13:10:27;0.20;99.90
52675;DHT22;38569;52.722;6.440;2022-12-18T13:13:02;0.20;99.90
52675;DHT22;38569;52.722;6.440;2022-12-18T13:15:40;0.30;99.90
52675;DHT22;38569;52.722;6.440;2022-12-18T13:18:12;0.30;99.90
52675;DHT22;38569;52.722;6.440;2022-12-18T13:34:24;0.40;99.90
52675;DHT22;38569;52.722;6.440;2022-12-18T13:36:52;0.40;99.90
52675;DHT22;38569;52.722;6.440;2022-12-18T13:41:45;0.40;99.90
52675;DHT22;38569;52.722;6.440;2022-12-18T13:44:36;0.40;99.90
52675;DHT22;38569;52.722;6.440;2022-12-18T13:47:31;0.40;99.90
52675;DHT22;38569;52.722;6.440;2022-12-18T13:49:57;0.40;99.90
52675;DHT22;38569;52.722;6.440;2022-12-18T13:52:25;0.40;99.90
52675;DHT22;38569;52.722;6.440;2022-12-18T13:54:57;0.30;99.90
52675;DHT22;38569;52.722;6.440;2022-12-18T13:57:29;0.30;99.90
52675;DHT22;38569;52.722;6.440;2022-12-18T13:59:56;0.30;99.90
52675;DHT22;38569;52.722;6.440;2022-12-18T14:02:24;0.20;99.90
52675;DHT22;38569;52.722;6.440;2022-12-18T14:04:51;0.20;99.90
52675;DHT22;38569;52.722;6.440;2022-12-18T14:07:25;0.20;99.90
52675;DHT22;38569;52.722;6.440;2022-12-18T14:09:56;0.20;99.90
52675;DHT22;38569;52.722;6.440;2022-12-18T14:12:31;0.10;99.90
52675;DHT22;38569;52.722;6.440;2022-12-18T14:15:40;0.10;99.90
52675;DHT22;38569;52.722;6.440;2022-12-18T14:18:50;0.10;99.90
52675;DHT22;38569;52.722;6.440;2022-12-18T14:21:25;0.10;99.90
52675;DHT22;38569;52.722;6.440;2022-12-18T14:24:05;0.10;99.90
52675;DHT22;38569;52.722;6.440;2022-12-18T14:26:32;0.10;99.90
52675;DHT22;38569;52.722;6.440;2022-12-18T14:29:10;0.00;99.90
52675;DHT22;38569;52.722;6.440;2022-12-18T14:31:42;0.00;99.90
52675;DHT22;38569;52.722;6.440;2022-12-18T14:34:15;0.00;99.90
52675;DHT22;38569;52.722;6.440;2022-12-18T14:36:41;-0.10;99.90
52675;DHT22;38569;52.722;6.440;2022-12-18T14:39:16;-0.10;99.90
52675;DHT22;38569;52.722;6.440;2022-12-18T14:41:42;-0.10;99.90
52675;DHT22;38569;52.722;6.440;2022-12-18T14:44:12;-0.10;99.90
52675;DHT22;38569;52.722;6.440;2022-12-18T14:46:45;-0.10;99.90
52675;DHT22;38569;52.722;6.440;2022-12-18T14:49:27;-0.10;99.90
52675;DHT22;38569;52.722;6.440;2022-12-18T14:51:56;-0.10;99.90
52675;DHT22;38569;52.722;6.440;2022-12-18T14:54:24;-0.10;99.90
52675;DHT22;38569;52.722;6.440;2022-12-18T14:57:22;-0.10;99.90
52675;DHT22;38569;52.722;6.440;2022-12-18T14:59:49;-0.20;99.90
52675;DHT22;38569;52.722;6.440;2022-12-18T15:02:24;-0.20;99.90
52675;DHT22;38569;52.722;6.440;2022-12-18T15:08:01;-0.20;99.90
52675;DHT22;38569;52.722;6.440;2022-12-18T15:10:34;-0.20;99.90
52675;DHT22;38569;52.722;6.440;2022-12-18T15:20:45;-0.30;99.90
52675;DHT22;38569;52.722;6.440;2022-12-18T15:28:26;-0.40;99.90
52675;DHT22;38569;52.722;6.440;2022-12-18T15:33:26;-0.40;99.90
52675;DHT22;38569;52.722;6.440;2022-12-18T15:35:57;-0.40;99.90
52675;DHT22;38569;52.722;6.440;2022-12-18T15:38:23;-0.40;99.90
52675;DHT22;38569;52.722;6.440;2022-12-18T15:40:49;-0.40;99.90
52675;DHT22;38569;52.722;6.440;2022-12-18T15:43:14;-0.40;99.90
52675;DHT22;38569;52.722;6.440;2022-12-18T15:46:20;-0.50;99.90
52675;DHT22;38569;52.722;6.440;2022-12-18T15:48:49;-0.40;99.90
52675;DHT22;38569;52.722;6.440;2022-12-18T15:51:17;-0.50;99.90
52675;DHT22;38569;52.722;6.440;2022-12-18T15:53:44;-0.50;99.90
52675;DHT22;38569;52.722;6.440;2022-12-18T15:56:11;-0.50;99.90
52675;DHT22;38569;52.722;6.440;2022-12-18T15:58:56;-0.50;99.90
52675;DHT22;38569;52.722;6.440;2022-12-18T16:01:24;-0.50;99.90
52675;DHT22;38569;52.722;6.440;2022-12-18T16:03:50;-0.50;99.90
52675;DHT22;38569;52.722;6.440;2022-12-18T16:06:16;-0.50;99.90
52675;DHT22;38569;52.722;6.440;2022-12-18T16:08:42;-0.50;99.90
52675;DHT22;38569;52.722;6.440;2022-12-18T16:11:24;-0.50;99.90
52675;DHT22;38569;52.722;6.440;2022-12-18T16:14:26;-0.50;99.90
52675;DHT22;38569;52.722;6.440;2022-12-18T16:17:18;-0.50;99.90
52675;DHT22;38569;52.722;6.440;2022-12-18T16:19:44;-0.50;99.90
52675;DHT22;38569;52.722;6.440;2022-12-18T16:22:25;-0.50;99.90
52675;DHT22;38569;52.722;6.440;2022-12-18T16:24:52;-0.50;99.90
52675;DHT22;38569;52.722;6.440;2022-12-18T16:27:19;-0.40;99.90
52675;DHT22;38569;52.722;6.440;2022-12-18T16:29:45;-0.50;99.90
52675;DHT22;38569;52.722;6.440;2022-12-18T16:32:14;-0.50;99.90
52675;DHT22;38569;52.722;6.440;2022-12-18T16:34:40;-0.50;99.90
52675;DHT22;38569;52.722;6.440;2022-12-18T16:37:09;-0.40;99.90
52675;DHT22;38569;52.722;6.440;2022-12-18T16:39:36;-0.40;99.90
52675;DHT22;38569;52.722;6.440;2022-12-18T16:42:16;-0.40;99.90
52675;DHT22;38569;52.722;6.440;2022-12-18T16:44:45;-0.40;99.90
52675;DHT22;38569;52.722;6.440;2022-12-18T16:47:11;-0.40;99.90
52675;DHT22;38569;52.722;6.440;2022-12-18T16:49:37;-0.50;99.90
52675;DHT22;38569;52.722;6.440;2022-12-18T16:52:04;-0.50;99.90
52675;DHT22;38569;52.722;6.440;2022-12-18T16:54:30;-0.50;99.90
52675;DHT22;38569;52.722;6.440;2022-12-18T16:56:58;-0.50;99.90
52675;DHT22;38569;52.722;6.440;2022-12-18T16:59:25;-0.50;99.90
52675;DHT22;38569;52.722;6.440;2022-12-18T17:01:51;-0.50;99.90
52675;DHT22;38569;52.722;6.440;2022-12-18T17:04:17;-0.50;99.90
52675;DHT22;38569;52.722;6.440;2022-12-18T17:06:44;-0.50;99.90
52675;DHT22;38569;52.722;6.440;2022-12-18T17:09:17;-0.50;99.90
52675;DHT22;38569;52.722;6.440;2022-12-18T17:11:45;-0.50;99.90
52675;DHT22;38569;52.722;6.440;2022-12-18T17:14:16;-0.50;99.90
52675;DHT22;38569;52.722;6.440;2022-12-18T17:16:42;-0.50;99.90
52675;DHT22;38569;52.722;6.440;2022-12-18T17:19:08;-0.50;99.90
52675;DHT22;38569;52.722;6.440;2022-12-18T17:21:34;-0.50;99.90
52675;DHT22;38569;52.722;6.440;2022-12-18T17:24:00;-0.40;99.90
52675;DHT22;38569;52.722;6.440;2022-12-18T17:26:27;-0.50;99.90
52675;DHT22;38569;52.722;6.440;2022-12-18T17:28:55;-0.40;99.90
52675;DHT22;38569;52.722;6.440;2022-12-18T17:31:23;-0.40;99.90
52675;DHT22;38569;52.722;6.440;2022-12-18T17:33:49;-0.40;99.90
52675;DHT22;38569;52.722;6.440;2022-12-18T17:36:16;-0.40;99.90
52675;DHT22;38569;52.722;6.440;2022-12-18T17:38:42;-0.40;99.90
52675;DHT22;38569;52.722;6.440;2022-12-18T17:41:10;-0.50;99.90
52675;DHT22;38569;52.722;6.440;2022-12-18T17:43:36;-0.40;99.90
52675;DHT22;38569;52.722;6.440;2022-12-18T17:46:12;-0.40;99.90
52675;DHT22;38569;52.722;6.440;2022-12-18T17:48:38;-0.40;99.90
52675;DHT22;38569;52.722;6.440;2022-12-18T17:51:06;-0.40;99.90
52675;DHT22;38569;52.722;6.440;2022-12-18T17:53:32;-0.40;99.90